METAR Data
IDs: Format: Raw Decoded Include TAF

Data at: 0233 UTC 25 Jan 2020

PANC 250153Z 17005KT 10SM FEW080 FEW180 M14/M18 A2942 RMK AO2 SLP967 T11441183
PANC 250053Z 15004KT 10SM FEW080 FEW180 M13/M17 A2941 RMK AO2 SLP964 T11281172
PANC 242353Z 12005KT 10SM FEW080 FEW180 M11/M17 A2940 RMK AO2 SLP961 4/013 60000 T11111172 11100 21133 56004
PANC 242253Z 12006KT 10SM FEW090 M12/M17 A2940 RMK AO2 SLP961 T11171172
PANC 242153Z 05005KT 10SM FEW050 SCT100 M11/M17 A2940 RMK AO2 SLP961 T11111172
PANC 242053Z VRB06KT 10SM FEW030 SCT043 BKN090 M11/M17 A2941 RMK AO2 SNE12 SLP965 P0000 60000 T11111167 53003
PANC 242014Z 04009KT 10SM BKN030 BKN043 BKN080 M11/M17 A2941 RMK AO2 SNE12 P0000 T11061167
PANC 242003Z 03007KT 7SM -SN BKN025 OVC034 M11/M16 A2941 RMK AO2 P0000 T11111161
PANC 241953Z 04005KT 2SM R07R/5000VP6000FT -SN BKN024 OVC035 M11/M16 A2941 RMK AO2 TWR VIS 5 SNB32 SLP964 P0000 T11111161
PANC 241941Z 03006KT 2SM -SN BKN028 BKN035 OVC075 M11/M17 A2941 RMK AO2 SNB32 P0000 T11111167
PANC 241853Z 04007KT 10SM SCT110 M12/M19 A2941 RMK AO2 SLP962 T11221189
PANC 241753Z 05006KT 10SM OVC110 M12/M19 A2941 RMK AO2 SLP962 4/013 T11221189 11100 21144 55005
PANC 241653Z 04007KT 10SM FEW120 M11/M19 A2941 RMK AO2 SLP962 T11111189
PANC 241553Z 02005KT 10SM SCT080 BKN100 M12/M18 A2942 RMK AO2 SLP966 T11171183
PANC 241453Z 06006KT 10SM BKN100 M13/M19 A2942 RMK AO2 SLP967 T11281189 58007
PANC 241353Z 02007KT 340V050 10SM SCT100 BKN120 M13/M19 A2943 RMK AO2 CIG 095 N SLP969 T11331189
PANC 241253Z 06006KT 10SM OVC100 M11/M18 A2944 RMK AO2 SLP973 T11061183
PANC 241153Z 02006KT 10SM SCT090 OVC110 M12/M18 A2944 RMK AO2 CIG 090 N SLP974 4/013 T11171183 11106 21183 56010
PANC 241053Z 07006KT 10SM BKN110 M12/M19 A2945 RMK AO2 SLP976 T11221189
PANC 240953Z 00000KT 10SM SCT120 M16/M19 A2946 RMK AO2 SLP981 T11561194
PANC 240853Z 14004KT 10SM FEW065 BKN100 M14/M19 A2947 RMK AO2 SLP984 T11441189 410941183 53004
PANC 240753Z VRB04KT 10SM FEW065 BKN100 M11/M17 A2946 RMK AO2 SLP981 T11111172
PANC 240653Z VRB03KT 10SM FEW090 M14/M18 A2946 RMK AO2 SLP980 T11391183
PANC 240553Z 00000KT 10SM SCT095 M14/M19 A2946 RMK AO2 SLP980 4/013 T11391189 11111 21150 53000
PANC 240453Z 03005KT 10SM CLR M12/M18 A2946 RMK AO2 SLP979 T11221178
PANC 240353Z 07004KT 10SM CLR M14/M19 A2946 RMK AO2 SLP979 T11441189
PANC 240253Z VRB03KT 10SM FEW040 M13/M17 A2946 RMK AO2 SLP980 T11281167 56004
PANC 240153Z 18005KT 10SM FEW040 M13/M16 A2946 RMK AO2 SLP981 T11331161
PANC 240053Z 17006KT 10SM FEW040 M13/M17 A2947 RMK AO2 SLP982 T11281167
PANC 232353Z 13007KT 10SM FEW040 M12/M17 A2947 RMK AO2 SLP983 4/013 T11221172 11094 21156 56012
PANC 232253Z 31004KT 10SM FEW040 M10/M17 A2948 RMK AO2 SLP984 T11001167 $
PANC 232153Z 18003KT 10SM FEW040 M14/M18 A2949 RMK AO2 SLP990 T11441178 $
PANC 232053Z 17004KT 10SM FEW040 M14/M18 A2951 RMK AO2 SLP996 T11441183 58000 $
PANC 231953Z 00000KT 10SM FEW030 FEW060 M14/M19 A2951 RMK AO2 SLP997 T11441194
PANC 231853Z 34006KT 10SM FEW030 SCT065 SCT080 M13/M18 A2951 RMK AO2 SLP998 T11331183
PANC 231753Z 02005KT 10SM BKN065 OVC080 M13/M18 A2951 RMK AO2 SLP995 4/014 60000 I6000 T11281178 11094 21156 56015
PANC 231653Z 30004KT 10SM BKN070 BKN085 M14/M17 A2952 RMK AO2 SLP000 T11441172
PANC 231553Z 30005KT 10SM FEW026 SCT070 BKN085 M14/M17 A2953 RMK AO2 SLP003 T11441172
PANC 231453Z 30006KT 10SM SCT026 OVC070 M14/M17 A2955 RMK AO2 SLP011 60000 I1000 I3000 T11391172 58020 $